Grovania, Georgia
Current Conditions -  °F | °C
As of 6:35 PM on Saturday 22 Nov 2014 (Local Time) from KPXE Reporting Station
Light Rain Light Rain  
Wind Chill: 61°   Ceiling: 3600
Heat Index: 61°   Visibility: 10mi
Dew Point: 47°   Wind: 5mph
Humidity: 61%   Direction: 50°NE
Pressure: 30.26"   Gusts: NA
Location:  32.2568°N, 83.5362°W
Report Text: KPXE 222335Z AUTO 05004KT 10SM -RA OVC036 16/09 A3026 RMK AO2 LTG DSNT SW T01590085
Loading
Personal Weather Stations






























Interactive Weather Map New forecast layout! Learn more

10-Day Weather Forecast

Advertisements
Track Severe Weather on mobile